Time;durP1;ratioP1;P1;durP2;ratioP2;P2;SDS_P1;SDS_P2;PMS_P1;PMS_P2;Temp;Humidity;BMP_temperature;BMP_pressure;BME280_temperature;BME280_humidity;BME280_pressure;Samples;Min_cycle;Max_cycle;Signal;HPM_P1;HPM_P2
2022/08/08 00:00:42;;;;;;;15.30;12.23;;;;;;;22.63;67.99;99246.50;5114428;27;20452;-77
2022/08/08 00:03:24;;;;;;;17.08;12.70;;;;;;;22.77;67.67;99269.16;5115538;28;20114;-77
2022/08/08 00:06:00;;;;;;;16.52;12.82;;;;;;;22.56;68.68;99256.75;5105123;27;20527;-77
2022/08/08 00:08:42;;;;;;;16.33;12.48;;;;;;;22.46;69.03;99251.94;5093708;28;20510;-78
2022/08/08 00:11:12;;;;;;;17.70;11.85;;;;;;;22.32;69.45;99260.59;5094734;28;20383;-77
2022/08/08 00:13:44;;;;;;;16.42;12.32;;;;;;;22.27;69.77;99257.00;5104088;27;20186;-77
2022/08/08 00:16:15;;;;;;;22.70;13.88;;;;;;;22.06;70.35;99263.69;5125286;27;20497;-77
2022/08/08 00:18:41;;;;;;;18.45;15.48;;;;;;;22.13;70.36;99257.13;5114434;28;20031;-77
2022/08/08 00:21:15;;;;;;;21.58;14.48;;;;;;;22.08;70.88;99257.56;5114978;27;20079;-77
2022/08/08 00:23:53;;;;;;;20.02;14.45;;;;;;;22.24;69.98;99260.69;5134290;27;20143;-77
2022/08/08 00:26:29;;;;;;;17.45;13.55;;;;;;;22.18;70.10;99259.50;5134276;27;20400;-77
2022/08/08 00:29:09;;;;;;;16.25;12.40;;;;;;;21.98;69.83;99264.97;5134199;27;20035;-77
2022/08/08 00:31:45;;;;;;;18.10;12.85;;;;;;;21.85;69.65;99265.47;5136064;27;20401;-77
2022/08/08 00:37:47;;;;;;;16.17;12.32;;;;;;;21.59;70.37;99259.09;5109324;28;20038;-77
2022/08/08 00:40:27;;;;;;;15.32;12.18;;;;;;;21.44;71.03;99261.19;5114544;28;20397;-77
2022/08/08 00:43:31;;;;;;;13.45;12.00;;;;;;;21.39;71.02;99267.34;5114516;28;20519;-77
2022/08/08 00:46:13;;;;;;;17.25;11.43;;;;;;;21.31;71.14;99262.91;5109271;28;20078;-77
2022/08/08 00:49:08;;;;;;;17.05;12.07;;;;;;;21.23;71.58;99264.97;5114517;28;20027;-77
2022/08/08 00:51:54;;;;;;;15.52;11.63;;;;;;;21.13;72.09;99269.50;5094251;28;20028;-77
2022/08/08 00:54:43;;;;;;;15.93;12.27;;;;;;;20.88;72.88;99273.22;5092821;28;20028;-77
2022/08/08 00:57:32;;;;;;;15.60;12.98;;;;;;;20.96;73.27;99281.72;5092541;28;20028;-77
2022/08/08 01:00:21;;;;;;;13.95;12.18;;;;;;;20.68;73.96;99277.72;5112083;27;20059;-77
2022/08/08 01:03:23;;;;;;;14.52;13.02;;;;;;;20.66;74.75;99275.28;5114493;28;20359;-77
2022/08/08 01:05:51;;;;;;;15.90;13.50;;;;;;;20.58;75.08;99274.47;5117975;27;20058;-77
2022/08/08 01:08:44;;;;;;;14.18;12.63;;;;;;;20.54;75.25;99278.53;5134537;27;20027;-77
2022/08/08 01:11:39;;;;;;;15.32;13.18;;;;;;;20.41;75.95;99278.16;5133453;27;20030;-77
2022/08/08 01:14:16;;;;;;;23.90;14.00;;;;;;;20.31;76.33;99274.91;5123534;27;20512;-77
2022/08/08 01:17:04;;;;;;;16.10;13.35;;;;;;;20.14;76.77;99265.19;5134239;27;20027;-77
2022/08/08 01:19:41;;;;;;;18.73;13.80;;;;;;;20.14;76.99;99282.22;5109501;27;20118;-77
2022/08/08 01:22:28;;;;;;;22.17;13.77;;;;;;;19.95;77.29;99274.91;5110265;27;20019;-77
2022/08/08 01:24:57;;;;;;;16.42;13.85;;;;;;;19.91;77.85;99274.06;5134355;27;20030;-77
2022/08/08 01:27:59;;;;;;;17.98;13.85;;;;;;;19.91;77.49;99269.19;5127211;27;20413;-77
2022/08/08 01:30:31;;;;;;;18.23;14.23;;;;;;;20.03;77.52;99279.38;5091058;28;20024;-77
2022/08/08 01:33:18;;;;;;;18.80;14.70;;;;;;;20.02;77.15;99279.78;5093559;28;20032;-76
2022/08/08 01:35:59;;;;;;;14.73;13.15;;;;;;;20.07;76.84;99276.53;5091972;28;20027;-77
2022/08/08 01:38:34;;;;;;;15.82;14.18;;;;;;;19.86;77.13;99282.97;5111504;27;20035;-77
2022/08/08 01:41:39;;;;;;;17.90;14.80;;;;;;;19.77;77.34;99284.16;5112436;28;20024;-76
2022/08/08 01:44:52;;;;;;;19.75;14.95;;;;;;;19.58;77.67;99287.38;5115624;27;20042;-76
2022/08/08 01:47:30;;;;;;;19.58;15.73;;;;;;;19.48;78.34;99294.63;5117119;27;20550;-76
2022/08/08 01:50:18;;;;;;;16.55;14.77;;;;;;;19.75;77.29;99289.44;5091671;28;20039;-76
2022/08/08 01:52:47;;;;;;;21.65;15.35;;;;;;;19.81;76.75;99289.06;5063681;28;20117;-76
2022/08/08 01:55:34;;;;;;;17.98;15.40;;;;;;;19.91;76.89;99296.78;5092969;28;20016;-76
2022/08/08 01:58:21;;;;;;;20.77;14.73;;;;;;;19.93;76.58;99283.03;5091447;28;20032;-76
2022/08/08 02:01:16;;;;;;;20.73;14.50;;;;;;;20.06;75.98;99281.41;5102022;27;20095;-76
2022/08/08 02:04:06;;;;;;;21.67;13.65;;;;;;;20.17;75.91;99289.13;5133919;27;20428;-77
2022/08/08 02:06:54;;;;;;;19.15;13.65;;;;;;;20.28;75.07;99287.09;5124446;27;20030;-76
2022/08/08 02:09:35;;;;;;;19.88;13.32;;;;;;;20.38;75.22;99293.16;5112932;28;20382;-77
2022/08/08 02:12:10;;;;;;;17.55;13.98;;;;;;;20.48;74.70;99290.31;5112691;28;20058;-77
2022/08/08 02:14:42;;;;;;;20.02;13.93;;;;;;;20.36;75.13;99293.59;5111570;28;20027;-76
2022/08/08 02:17:29;;;;;;;14.77;13.18;;;;;;;20.40;75.12;99294.38;5110806;28;20027;-76
2022/08/08 02:20:06;;;;;;;17.88;13.45;;;;;;;20.50;74.47;99298.41;5111462;28;20027;-77
2022/08/08 02:22:58;;;;;;;18.98;12.40;;;;;;;20.43;75.00;99306.97;5112645;28;20055;-77
2022/08/08 02:25:41;;;;;;;16.02;12.88;;;;;;;20.45;74.60;99298.84;5096849;27;20039;-76
2022/08/08 02:28:16;;;;;;;15.57;13.55;;;;;;;20.43;75.22;99299.25;5111391;28;20042;-76
2022/08/08 02:30:59;;;;;;;28.05;14.57;;;;;;;20.14;76.05;99302.09;5128241;27;20068;-77
2022/08/08 02:33:52;;;;;;;14.13;12.68;;;;;;;20.01;76.96;99293.16;5133773;27;20064;-77
2022/08/08 02:36:37;;;;;;;22.73;13.68;;;;;;;20.05;76.49;99299.66;5108151;27;20539;-76
2022/08/08 02:39:03;;;;;;;14.70;12.80;;;;;;;19.96;76.86;99292.75;5091914;28;20054;-77
2022/08/08 02:42:05;;;;;;;20.40;13.73;;;;;;;19.83;77.03;99300.81;5091787;28;20099;-76
2022/08/08 02:44:50;;;;;;;17.02;13.88;;;;;;;19.88;76.70;99298.38;5096342;28;20027;-76
2022/08/08 02:47:16;;;;;;;20.55;12.73;;;;;;;19.87;76.92;99301.63;5099416;28;20082;-76
2022/08/08 02:50:15;;;;;;;16.88;12.70;;;;;;;19.81;76.98;99297.56;5096903;28;20034;-76
2022/08/08 02:52:49;;;;;;;17.23;12.85;;;;;;;19.70;77.13;99306.88;5110182;28;20118;-76
2022/08/08 02:55:52;;;;;;;26.83;12.93;;;;;;;19.67;77.45;99302.00;5110440;28;20027;-77
2022/08/08 02:58:36;;;;;;;29.10;13.23;;;;;;;19.66;77.47;99296.72;5110262;28;20653;-77
2022/08/08 03:01:29;;;;;;;17.52;14.05;;;;;;;19.64;77.47;99308.47;5114419;28;20058;-77
2022/08/08 03:04:11;;;;;;;14.18;12.23;;;;;;;19.64;77.05;99302.78;5110261;28;20054;-77
2022/08/08 03:06:55;;;;;;;27.38;12.98;;;;;;;19.70;77.29;99308.88;5104980;28;20043;-76
2022/08/08 03:09:57;;;;;;;57.40;15.00;;;;;;;19.62;77.51;99308.06;5110904;28;20404;-77
2022/08/08 03:12:25;;;;;;;17.88;12.95;;;;;;;19.56;77.84;99318.19;5091238;28;20494;-74
2022/08/08 03:15:19;;;;;;;22.63;13.82;;;;;;;19.58;77.78;99304.41;5126221;28;20454;-76
2022/08/08 03:17:50;;;;;;;26.33;13.48;;;;;;;19.55;77.40;99319.38;5090264;28;20024;-76
2022/08/08 03:20:16;;;;;;;17.42;12.40;;;;;;;19.62;77.21;99319.41;5105734;28;20035;-75
2022/08/08 03:22:52;;;;;;;16.25;11.77;;;;;;;19.68;77.00;99317.81;5111771;28;20103;-74
2022/08/08 03:25:20;;;;;;;15.45;13.52;;;;;;;19.69;77.64;99325.09;5110471;28;20489;-75
2022/08/08 03:27:49;;;;;;;18.55;12.85;;;;;;;19.68;77.46;99323.47;5111080;28;20433;-76
2022/08/08 03:30:15;;;;;;;14.90;13.25;;;;;;;19.55;77.79;99316.53;5116033;28;20035;-76
2022/08/08 03:35:26;;;;;;;18.20;13.27;;;;;;;19.56;78.20;99318.19;5113831;28;20081;-77
2022/08/08 03:37:53;;;;;;;18.73;13.52;;;;;;;19.47;78.35;99324.19;5108739;28;20058;-77
2022/08/08 03:40:20;;;;;;;15.60;14.00;;;;;;;19.48;78.38;99325.81;5111602;28;20529;-77
2022/08/08 03:42:47;;;;;;;16.10;13.13;;;;;;;19.43;78.71;99331.91;5111701;28;20023;-77
2022/08/08 03:45:21;;;;;;;20.27;13.60;;;;;;;19.38;78.73;99333.09;5111611;28;20032;-77
2022/08/08 03:48:04;;;;;;;21.75;14.82;;;;;;;19.45;78.72;99333.13;5110142;28;20085;-75
2022/08/08 03:50:31;;;;;;;22.15;14.25;;;;;;;19.49;77.97;99325.44;5110156;28;20027;-76
2022/08/08 03:53:11;;;;;;;19.05;13.80;;;;;;;19.50;77.98;99332.72;5110595;28;20059;-76
2022/08/08 03:55:42;;;;;;;16.38;13.13;;;;;;;19.55;77.51;99337.22;5131486;27;20066;-75
2022/08/08 03:58:09;;;;;;;21.27;13.95;;;;;;;19.62;77.79;99344.94;5118393;27;20036;-77
2022/08/08 04:00:35;;;;;;;15.95;13.55;;;;;;;19.71;77.35;99344.53;5113634;28;20040;-77
2022/08/08 04:03:03;;;;;;;14.63;12.57;;;;;;;19.79;76.82;99334.84;5122350;27;20031;-76
2022/08/08 04:05:31;;;;;;;15.13;13.52;;;;;;;19.88;76.41;99345.81;5113498;28;20032;-76
2022/08/08 04:07:58;;;;;;;18.58;12.70;;;;;;;20.06;75.46;99343.88;5113550;28;20030;-76
2022/08/08 04:10:24;;;;;;;18.52;13.02;;;;;;;20.18;74.85;99350.38;5114663;28;20507;-76
2022/08/08 04:12:50;;;;;;;16.85;12.65;;;;;;;20.21;75.36;99338.19;5116036;27;20035;-76
2022/08/08 04:15:15;;;;;;;19.90;14.13;;;;;;;20.37;74.78;99351.19;5113378;27;20031;-76
2022/08/08 04:17:41;;;;;;;21.58;13.40;;;;;;;20.39;74.15;99343.88;5112397;28;20020;-76
2022/08/08 04:20:07;;;;;;;19.05;14.05;;;;;;;20.50;73.76;99355.22;5114764;28;20035;-76
2022/08/08 04:22:33;;;;;;;20.17;13.85;;;;;;;20.63;73.22;99358.50;5114470;28;20095;-76
2022/08/08 04:25:01;;;;;;;19.83;14.32;;;;;;;20.64;73.11;99353.63;5114620;28;20098;-76
2022/08/08 04:27:28;;;;;;;21.45;14.00;;;;;;;20.72;72.54;99366.59;5112647;28;20139;-76
2022/08/08 04:29:53;;;;;;;16.67;13.20;;;;;;;20.77;72.98;99357.69;5114344;28;20409;-76
2022/08/08 04:32:19;;;;;;;21.63;15.43;;;;;;;20.85;72.43;99369.88;5113833;27;20119;-76
2022/08/08 04:34:47;;;;;;;23.42;15.13;;;;;;;20.83;72.31;99367.44;5113324;28;20051;-76
2022/08/08 04:37:13;;;;;;;21.85;15.07;;;;;;;20.98;72.10;99370.25;5113096;28;20051;-77
2022/08/08 04:39:39;;;;;;;17.50;11.75;;;;;;;20.83;72.39;99361.75;5114245;28;20066;-76
2022/08/08 04:42:04;;;;;;;19.55;12.95;;;;;;;20.90;72.45;99370.28;5111673;28;20024;-76
2022/08/08 04:44:30;;;;;;;13.57;12.18;;;;;;;21.00;72.08;99367.81;5114045;28;20027;-77
2022/08/08 04:46:56;;;;;;;15.18;11.73;;;;;;;21.04;71.97;99360.09;5114333;28;20016;-77
2022/08/08 04:49:21;;;;;;;14.52;11.75;;;;;;;20.95;72.02;99376.75;5115708;27;20505;-76
2022/08/08 04:51:47;;;;;;;13.93;12.27;;;;;;;20.99;71.74;99371.88;5112517;28;20032;-76
2022/08/08 04:54:12;;;;;;;26.60;13.93;;;;;;;21.15;71.81;99372.25;5113941;28;20023;-76
2022/08/08 04:56:38;;;;;;;22.77;13.27;;;;;;;21.26;70.81;99377.09;5131587;27;20025;-76
2022/08/08 04:59:03;;;;;;;17.90;12.13;;;;;;;21.43;70.21;99379.06;5133101;27;20023;-76
2022/08/08 05:01:29;;;;;;;18.05;13.13;;;;;;;21.63;70.08;99386.31;5119448;27;20413;-76
2022/08/08 05:03:55;;;;;;;17.83;12.70;;;;;;;21.57;69.47;99386.75;5116220;27;20058;-76
2022/08/08 05:06:20;;;;;;;14.70;12.00;;;;;;;21.63;69.14;99386.31;5114941;27;20648;-76
2022/08/08 05:08:46;;;;;;;17.50;13.02;;;;;;;21.63;69.77;99377.78;5132735;27;20020;-76
2022/08/08 05:11:12;;;;;;;15.35;11.73;;;;;;;21.90;68.71;99386.63;5114495;27;20053;-76
2022/08/08 05:13:42;;;;;;;20.42;12.02;;;;;;;22.07;68.61;99384.06;5112282;28;20476;-76
2022/08/08 05:16:08;;;;;;;17.75;12.18;;;;;;;22.04;67.84;99385.75;5120102;27;20016;-76
2022/08/08 05:18:37;;;;;;;17.48;11.98;;;;;;;21.98;67.32;99382.50;5110735;28;20461;-76
2022/08/08 05:21:09;;;;;;;18.57;12.23;;;;;;;22.07;67.35;99389.78;5111073;28;20028;-76
2022/08/08 05:23:35;;;;;;;15.15;11.93;;;;;;;22.10;66.33;99371.88;5112856;28;20031;-75
2022/08/08 05:26:01;;;;;;;16.35;13.45;;;;;;;22.26;66.24;99391.28;5112768;28;20024;-76
2022/08/08 05:28:27;;;;;;;16.17;12.45;;;;;;;22.22;65.56;99397.03;5112627;28;20114;-76
2022/08/08 05:30:53;;;;;;;17.05;13.40;;;;;;;22.27;64.60;99390.88;5103187;28;20115;-75
2022/08/08 05:33:18;;;;;;;19.13;12.95;;;;;;;22.48;65.57;99397.69;5118698;27;20078;-75
2022/08/08 05:35:46;;;;;;;30.10;15.30;;;;;;;22.77;64.47;99400.28;5118829;27;20466;-76
2022/08/08 05:38:15;;;;;;;27.90;13.57;;;;;;;22.92;63.84;99397.28;5111624;27;20069;-76
2022/08/08 05:40:49;;;;;;;20.15;13.23;;;;;;;23.05;63.58;99398.41;5118106;27;20080;-76
2022/08/08 05:43:29;;;;;;;18.17;12.88;;;;;;;23.24;62.00;99401.88;5129401;27;20413;-76
2022/08/08 05:46:02;;;;;;;19.85;11.73;;;;;;;23.39;62.25;99403.34;5111650;28;20027;-76
2022/08/08 05:48:28;;;;;;;18.85;12.00;;;;;;;23.59;61.85;99404.75;5112020;28;20137;-76
2022/08/08 05:50:54;;;;;;;17.55;11.57;;;;;;;23.76;61.60;99405.78;5112178;28;20032;-75
2022/08/08 05:53:26;;;;;;;15.07;11.48;;;;;;;23.81;60.51;99408.19;5105190;27;20035;-75
2022/08/08 05:55:57;;;;;;;19.70;10.43;;;;;;;23.81;60.45;99408.97;5111526;28;20470;-75
2022/08/08 05:58:32;;;;;;;14.80;10.98;;;;;;;23.94;60.36;99411.25;5110383;28;20023;-74
2022/08/08 06:01:00;;;;;;;14.20;10.18;;;;;;;23.96;58.87;99409.59;5111893;28;20036;-75
2022/08/08 06:03:27;;;;;;;14.00;9.80;;;;;;;23.92;59.11;99413.75;5129082;27;20030;-75
2022/08/08 06:06:06;;;;;;;17.00;10.10;;;;;;;24.13;59.23;99409.81;5106258;27;20027;-74
2022/08/08 06:08:52;;;;;;;12.77;9.77;;;;;;;24.12;58.27;99419.59;5104518;28;20043;-74
2022/08/08 06:11:18;;;;;;;15.50;10.70;;;;;;;24.31;59.40;99414.47;5103535;28;20042;-74
2022/08/08 06:13:46;;;;;;;15.10;10.88;;;;;;;24.40;57.52;99420.44;5108192;28;20018;-74
2022/08/08 06:16:12;;;;;;;17.65;11.23;;;;;;;24.51;57.89;99414.56;5105259;28;20631;-75
2022/08/08 06:18:40;;;;;;;14.45;10.68;;;;;;;24.64;57.52;99418.41;5105786;28;20027;-73
2022/08/08 06:21:07;;;;;;;13.65;10.18;;;;;;;24.80;57.76;99419.84;5096994;28;20039;-74
2022/08/08 06:23:33;;;;;;;14.00;10.13;;;;;;;24.79;58.07;99423.94;5107492;28;20490;-73
2022/08/08 06:26:04;;;;;;;13.32;9.93;;;;;;;25.04;56.82;99417.78;5102985;28;20071;-76
2022/08/08 06:28:32;;;;;;;14.45;9.50;;;;;;;25.12;55.94;99418.47;5106000;28;20023;-78
2022/08/08 06:31:00;;;;;;;18.05;10.25;;;;;;;25.24;55.44;99406.38;5102136;28;20039;-73
2022/08/08 06:33:50;;;;;;;11.82;8.75;;;;;;;25.35;54.61;99411.91;5100819;28;20118;-75
2022/08/08 06:36:41;;;;;;;11.77;9.30;;;;;;;25.53;53.91;99419.34;5108930;28;20026;-76
2022/08/08 06:39:09;;;;;;;12.82;8.57;;;;;;;25.67;54.36;99417.44;5090476;28;20031;-79
2022/08/08 06:42:08;;;;;;;28.73;9.82;;;;;;;25.77;52.36;99411.50;5110546;28;20046;-72
2022/08/08 06:44:37;;;;;;;16.15;8.88;;;;;;;25.90;53.42;99410.84;5108486;28;20019;-80
2022/08/08 06:47:02;;;;;;;12.90;9.30;;;;;;;26.07;53.20;99411.69;5110555;28;20505;-79
2022/08/08 06:49:28;;;;;;;10.68;8.77;;;;;;;25.85;51.28;99415.03;5109960;28;20031;-74
2022/08/08 06:51:54;;;;;;;15.88;8.68;;;;;;;25.99;52.13;99419.63;5110818;28;20028;-74
2022/08/08 06:54:21;;;;;;;12.52;8.65;;;;;;;26.08;50.97;99413.31;5110044;28;20076;-72
2022/08/08 06:56:49;;;;;;;14.90;8.32;;;;;;;26.36;50.46;99408.19;5100188;28;20102;-72
2022/08/08 06:59:14;;;;;;;11.40;8.02;;;;;;;26.43;50.61;99407.22;5112360;28;20028;-72
2022/08/08 07:01:45;;;;;;;16.63;9.38;;;;;;;26.81;49.20;99420.25;5105479;28;20465;-72
2022/08/08 07:04:19;;;;;;;8.30;7.60;;;;;;;26.99;47.47;99414.84;5092606;28;20122;-72
2022/08/08 07:06:56;;;;;;;8.20;7.32;;;;;;;27.14;47.00;99418.16;5109529;28;20031;-73
2022/08/08 07:09:33;;;;;;;7.65;6.20;;;;;;;27.35;44.43;99413.09;5102068;28;20020;-73
2022/08/08 07:11:59;;;;;;;18.67;7.65;;;;;;;27.35;42.83;99412.28;5097926;28;20024;-74
2022/08/08 07:14:37;;;;;;;7.03;6.32;;;;;;;27.43;42.37;99413.72;5109941;28;20036;-75
2022/08/08 07:17:15;;;;;;;13.75;6.70;;;;;;;27.66;43.49;99414.75;5107152;28;20061;-75
2022/08/08 07:19:53;;;;;;;25.08;8.25;;;;;;;27.87;43.87;99414.13;5108506;28;20118;-75
2022/08/08 07:22:26;;;;;;;11.38;6.70;;;;;;;28.06;44.97;99417.22;5109487;28;20023;-74
2022/08/08 07:25:01;;;;;;;9.85;6.85;;;;;;;28.14;42.14;99410.00;5109808;28;20027;-73
2022/08/08 07:27:39;;;;;;;8.18;5.75;;;;;;;28.19;41.73;99410.72;5108510;28;20104;-73
2022/08/08 07:30:05;;;;;;;8.85;6.95;;;;;;;28.29;43.23;99406.72;5110433;28;20096;-77
2022/08/08 07:32:31;;;;;;;10.50;6.72;;;;;;;28.44;43.31;99410.72;5109364;28;20024;-75
2022/08/08 07:35:00;;;;;;;6.38;5.53;;;;;;;28.36;39.57;99409.38;5115103;28;20030;-78
2022/08/08 07:37:26;;;;;;;28.95;6.65;;;;;;;28.48;39.23;99412.69;5109745;28;20023;-74
2022/08/08 07:39:55;;;;;;;9.98;6.10;;;;;;;28.42;38.35;99412.47;5115436;28;20020;-77
2022/08/08 07:42:23;;;;;;;9.57;5.53;;;;;;;28.42;38.47;99413.25;5114661;28;20020;-75
2022/08/08 07:44:49;;;;;;;6.97;5.32;;;;;;;28.59;37.59;99419.69;5113113;28;20472;-74
2022/08/08 07:47:15;;;;;;;13.20;5.78;;;;;;;28.67;38.77;99410.84;5111104;27;20031;-72
2022/08/08 07:49:40;;;;;;;17.20;6.25;;;;;;;28.56;37.62;99414.88;5114941;28;20029;-71
2022/08/08 07:52:10;;;;;;;11.60;5.65;;;;;;;28.54;37.63;99414.53;5114482;28;20517;-73
2022/08/08 07:55:04;;;;;;;10.35;5.60;;;;;;;28.92;38.04;99407.13;5114337;28;20059;-72
2022/08/08 07:57:50;;;;;;;14.35;6.43;;;;;;;29.07;37.68;99409.50;5113354;28;20036;-72
2022/08/08 08:00:17;;;;;;;8.10;5.72;;;;;;;29.10;36.42;99414.34;5109802;28;20733;-72
2022/08/08 08:03:06;;;;;;;5.03;4.53;;;;;;;29.21;36.72;99406.16;5113791;28;20034;-72
2022/08/08 08:05:36;;;;;;;5.88;5.28;;;;;;;29.39;35.83;99416.22;5100692;28;20032;-72
2022/08/08 08:08:06;;;;;;;8.48;4.88;;;;;;;29.57;35.62;99415.59;5104411;28;20092;-72
2022/08/08 08:10:33;;;;;;;5.38;4.65;;;;;;;29.56;36.20;99400.38;5112971;28;20023;-73
2022/08/08 08:13:21;;;;;;;7.97;5.40;;;;;;;29.42;36.03;99406.63;5109587;28;20108;-74
2022/08/08 08:15:51;;;;;;;6.97;4.75;;;;;;;29.49;36.01;99400.63;5109209;28;20077;-74
2022/08/08 08:18:19;;;;;;;8.82;5.03;;;;;;;29.67;36.20;99404.91;5109761;28;20050;-78
2022/08/08 08:20:44;;;;;;;13.23;4.53;;;;;;;29.62;36.34;99399.78;5105876;28;20471;-76
2022/08/08 08:23:10;;;;;;;17.42;4.55;;;;;;;29.74;35.18;99395.19;5109884;28;20027;-79
2022/08/08 08:25:35;;;;;;;8.48;4.95;;;;;;;29.74;35.76;99401.78;5112438;28;20035;-74
2022/08/08 08:28:01;;;;;;;5.05;4.40;;;;;;;29.82;36.77;99406.00;5114397;28;20046;-75
2022/08/08 08:30:27;;;;;;;6.07;4.05;;;;;;;29.90;34.00;99402.81;5112542;28;20054;-76
2022/08/08 08:32:53;;;;;;;8.55;3.85;;;;;;;29.78;33.80;99401.66;5106784;28;20035;-76
2022/08/08 08:35:19;;;;;;;6.32;4.40;;;;;;;29.83;35.03;99406.78;5111898;28;20061;-75
2022/08/08 08:37:44;;;;;;;7.32;3.65;;;;;;;29.83;34.04;99395.25;5109649;27;20020;-76
2022/08/08 08:40:12;;;;;;;7.10;4.05;;;;;;;30.03;33.02;99403.53;5109741;28;20433;-75
2022/08/08 08:42:39;;;;;;;13.15;3.72;;;;;;;30.09;33.32;99404.59;5114505;28;20015;-76
2022/08/08 08:45:06;;;;;;;9.88;3.60;;;;;;;30.01;32.08;99400.34;5114030;27;20027;-77
2022/08/08 08:47:32;;;;;;;7.00;3.50;;;;;;;30.06;31.35;99394.00;5110929;28;20027;-76
2022/08/08 08:49:57;;;;;;;11.60;3.47;;;;;;;30.17;31.85;99390.69;5109843;28;20020;-76
2022/08/08 08:52:24;;;;;;;9.98;3.92;;;;;;;30.20;31.51;99392.59;5112758;28;20107;-76
2022/08/08 08:54:52;;;;;;;6.28;3.83;;;;;;;30.30;31.33;99392.66;5094747;28;20020;-75
2022/08/08 08:57:18;;;;;;;6.68;3.10;;;;;;;30.39;30.38;99381.16;5113030;28;20110;-75
2022/08/08 08:59:48;;;;;;;5.03;2.97;;;;;;;30.48;30.22;99381.19;5113917;28;20020;-75
2022/08/08 09:02:20;;;;;;;;;;;;;;;30.68;30.37;99389.47;5113675;28;20023;-75
2022/08/08 09:04:48;;;;;;;13.80;3.90;;;;;;;30.66;30.69;99374.72;5112570;28;19911;-74
2022/08/08 09:07:21;;;;;;;7.95;3.03;;;;;;;30.84;30.62;99373.13;5113775;27;20024;-76
2022/08/08 09:09:49;;;;;;;7.97;3.13;;;;;;;31.05;28.99;99365.59;5108220;28;20024;-77
2022/08/08 09:12:19;;;;;;;5.72;2.70;;;;;;;31.26;28.83;99368.88;5110276;28;20066;-78
2022/08/08 09:14:44;;;;;;;;;;;;;;;31.46;28.68;99371.25;5109636;28;20039;-77
2022/08/08 09:17:12;;;;;;;21.13;4.70;;;;;;;31.57;28.96;99362.09;5108955;28;19907;-76
2022/08/08 09:19:39;;;;;;;8.90;3.08;;;;;;;31.87;28.13;99355.81;5114106;28;20073;-74
2022/08/08 09:22:05;;;;;;;6.68;3.00;;;;;;;31.75;28.54;99352.59;5112319;28;20019;-78
2022/08/08 09:24:32;;;;;;;4.60;3.20;;;;;;;31.37;29.54;99351.03;5107919;27;20023;-75
2022/08/08 09:27:02;;;;;;;9.57;3.22;;;;;;;31.79;28.82;99353.25;5113661;28;20024;-79
2022/08/08 09:29:35;;;;;;;5.65;3.00;;;;;;;32.04;28.68;99348.34;5112937;28;20057;-78
2022/08/08 09:32:06;;;;;;;5.93;3.40;;;;;;;32.18;28.29;99341.06;5113250;28;20031;-80
2022/08/08 09:34:34;;;;;;;11.23;3.08;;;;;;;32.19;27.94;99344.75;5111028;28;20020;-79
2022/08/08 09:37:07;;;;;;;8.48;3.05;;;;;;;32.28;27.27;99341.81;5112428;28;20027;-75
2022/08/08 09:39:58;;;;;;;7.00;3.33;;;;;;;32.39;27.11;99335.53;5111788;28;20478;-75
2022/08/08 09:42:31;;;;;;;8.57;3.55;;;;;;;32.42;27.18;99327.97;5107335;28;20413;-78
2022/08/08 09:45:04;;;;;;;8.90;3.05;;;;;;;32.38;26.62;99336.81;5111421;28;20180;-77
2022/08/08 09:47:41;;;;;;;6.63;3.30;;;;;;;32.34;27.04;99319.63;5107580;27;20050;-76
2022/08/08 09:50:18;;;;;;;8.80;3.00;;;;;;;32.44;25.83;99326.19;5110528;28;20051;-76
2022/08/08 09:52:52;;;;;;;6.05;3.15;;;;;;;32.66;26.15;99327.16;5108126;28;20030;-76
2022/08/08 09:55:19;;;;;;;4.20;2.95;;;;;;;32.80;27.06;99323.53;5107133;28;20022;-76
2022/08/08 09:57:49;;;;;;;6.68;3.42;;;;;;;33.02;26.53;99331.94;5102703;28;20088;-79
2022/08/08 10:00:16;;;;;;;9.65;3.35;;;;;;;32.76;27.00;99320.84;5108861;28;20462;-80
2022/08/08 10:02:45;;;;;;;4.47;3.33;;;;;;;32.90;26.23;99325.09;5089697;28;20513;-84
2022/08/08 10:05:20;;;;;;;11.63;3.70;;;;;;;33.00;27.01;99322.13;5107074;28;20053;-82
2022/08/08 10:07:51;;;;;;;8.88;3.20;;;;;;;32.93;26.06;99325.41;5109292;28;20100;-80
2022/08/08 10:10:29;;;;;;;9.35;3.75;;;;;;;33.18;25.64;99310.41;5103802;28;20096;-81
2022/08/08 10:12:55;;;;;;;7.40;4.57;;;;;;;33.10;26.53;99312.06;5107736;28;20493;-75
2022/08/08 10:15:22;;;;;;;7.38;3.08;;;;;;;32.89;26.50;99305.31;5103580;28;20044;-81
2022/08/08 10:17:50;;;;;;;8.05;3.80;;;;;;;32.87;26.38;99305.78;5100897;28;20031;-80
2022/08/08 10:20:16;;;;;;;5.40;3.33;;;;;;;32.99;25.48;99303.16;5108856;28;20767;-79
2022/08/08 10:22:59;;;;;;;8.68;3.03;;;;;;;33.15;25.09;99304.78;5105188;28;20024;-79
2022/08/08 10:25:25;;;;;;;7.70;3.08;;;;;;;33.02;25.50;99305.06;5110276;28;20050;-81
2022/08/08 10:27:53;;;;;;;8.23;3.30;;;;;;;33.17;26.07;99302.97;5107891;28;20367;-76
2022/08/08 10:30:22;;;;;;;8.55;3.55;;;;;;;33.33;23.94;99295.91;5108928;28;20455;-81
2022/08/08 10:32:55;;;;;;;6.07;3.35;;;;;;;33.12;24.88;99295.00;5108803;28;20030;-80
2022/08/08 10:35:30;;;;;;;10.80;4.07;;;;;;;33.16;25.53;99292.69;5109371;28;20473;-79
2022/08/08 10:38:03;;;;;;;5.45;3.17;;;;;;;33.17;25.15;99294.28;5104394;28;20037;-78
2022/08/08 10:40:31;;;;;;;5.78;2.88;;;;;;;33.34;26.09;99293.84;5104793;28;20023;-76
2022/08/08 10:43:02;;;;;;;5.05;3.45;;;;;;;33.31;24.67;99286.94;5098192;28;20076;-80
2022/08/08 10:45:29;;;;;;;6.78;3.90;;;;;;;33.45;24.82;99296.97;5109430;28;20031;-78
2022/08/08 10:47:59;;;;;;;6.97;3.60;;;;;;;33.43;24.86;99292.94;5110090;28;20528;-80
2022/08/08 10:50:34;;;;;;;6.57;3.17;;;;;;;33.22;24.90;99280.44;5105540;28;20031;-81
2022/08/08 10:53:08;;;;;;;7.40;3.65;;;;;;;33.14;25.16;99289.50;5108493;28;20031;-79
2022/08/08 10:55:36;;;;;;;6.03;3.95;;;;;;;33.03;24.39;99275.63;5104731;28;20035;-79
2022/08/08 10:58:08;;;;;;;8.52;3.85;;;;;;;33.17;25.64;99274.00;5108285;28;20031;-80
2022/08/08 11:00:51;;;;;;;5.68;3.13;;;;;;;33.45;25.48;99279.56;5108712;28;20044;-79
2022/08/08 11:03:17;;;;;;;7.18;3.42;;;;;;;33.61;23.62;99268.78;5111246;28;20023;-79
2022/08/08 11:05:50;;;;;;;7.38;3.70;;;;;;;33.63;24.25;99260.38;5109696;28;20034;-79
2022/08/08 11:08:25;;;;;;;8.45;3.90;;;;;;;33.88;24.72;99269.72;5107854;28;20020;-78
2022/08/08 11:11:04;;;;;;;5.72;3.25;;;;;;;33.84;23.43;99263.34;5109128;28;20034;-78
2022/08/08 11:13:41;;;;;;;6.80;3.35;;;;;;;33.74;24.57;99248.97;5099484;28;20404;-79
2022/08/08 11:16:09;;;;;;;8.73;3.25;;;;;;;33.86;23.90;99264.44;5108116;28;20027;-79
2022/08/08 11:18:35;;;;;;;4.43;2.92;;;;;;;33.86;23.33;99252.84;5107874;28;20363;-78
2022/08/08 11:21:03;;;;;;;5.75;2.95;;;;;;;33.96;22.66;99244.00;5107090;28;20410;-79
2022/08/08 11:23:34;;;;;;;4.50;3.40;;;;;;;33.92;23.09;99244.25;5105347;28;20038;-79
2022/08/08 11:26:04;;;;;;;12.40;3.85;;;;;;;33.96;23.92;99241.09;5103433;28;20020;-79
2022/08/08 11:28:33;;;;;;;9.98;3.80;;;;;;;34.11;22.91;99230.31;5107281;28;20118;-79
2022/08/08 11:31:00;;;;;;;;;;;;;;;34.35;23.20;99229.31;5111136;28;20032;-79
2022/08/08 11:33:27;;;;;;;5.40;2.88;;;;;;;34.63;22.39;99233.91;5109909;28;19918;-79
2022/08/08 11:35:54;;;;;;;5.18;2.65;;;;;;;34.53;22.26;99236.97;5109411;28;20031;-79
2022/08/08 11:38:20;;;;;;;3.90;2.50;;;;;;;34.72;22.23;99228.75;5106675;28;20066;-79
2022/08/08 11:40:48;;;;;;;7.00;2.58;;;;;;;34.65;21.79;99225.50;5105096;28;20096;-79
2022/08/08 11:43:15;;;;;;;16.33;3.30;;;;;;;34.84;21.93;99220.16;5110232;28;20447;-79
2022/08/08 11:45:42;;;;;;;4.88;2.75;;;;;;;35.02;21.94;99213.22;5107195;28;20051;-79
2022/08/08 11:48:09;;;;;;;6.28;2.72;;;;;;;35.07;22.43;99211.72;5110591;28;20440;-79
2022/08/08 11:50:35;;;;;;;2.78;2.47;;;;;;;34.98;20.92;99212.66;5112475;28;20027;-79
2022/08/08 11:53:02;;;;;;;10.43;2.80;;;;;;;35.09;21.18;99215.69;5110528;28;20024;-79
2022/08/08 11:55:27;;;;;;;5.80;2.75;;;;;;;35.12;21.42;99210.97;5108650;28;20109;-79
2022/08/08 11:58:09;;;;;;;5.03;2.60;;;;;;;34.94;21.51;99217.88;5103904;28;20028;-79